sensor_id;sensor_type;location;lat;lon;timestamp;P1;durP1;ratioP1;P2;durP2;ratioP2
78116;SDS011;69042;59.120;37.904;2023-04-23T00:01:02;4.43;;;2.05;;
78116;SDS011;69042;59.120;37.904;2023-04-23T00:03:30;4.63;;;1.92;;
78116;SDS011;69042;59.120;37.904;2023-04-23T00:06:04;6.63;;;2.17;;
78116;SDS011;69042;59.120;37.904;2023-04-23T00:08:32;4.68;;;2.25;;
78116;SDS011;69042;59.120;37.904;2023-04-23T00:11:00;4.68;;;1.85;;
78116;SDS011;69042;59.120;37.904;2023-04-23T00:13:27;4.50;;;2.10;;
78116;SDS011;69042;59.120;37.904;2023-04-23T00:15:53;5.70;;;1.95;;
78116;SDS011;69042;59.120;37.904;2023-04-23T00:18:20;4.82;;;2.00;;
78116;SDS011;69042;59.120;37.904;2023-04-23T00:20:46;5.85;;;2.00;;
78116;SDS011;69042;59.120;37.904;2023-04-23T00:23:12;6.65;;;2.10;;
78116;SDS011;69042;59.120;37.904;2023-04-23T00:25:38;4.80;;;2.13;;
78116;SDS011;69042;59.120;37.904;2023-04-23T00:28:04;6.13;;;2.30;;
78116;SDS011;69042;59.120;37.904;2023-04-23T00:30:30;5.53;;;2.42;;
78116;SDS011;69042;59.120;37.904;2023-04-23T00:32:56;5.95;;;2.15;;
78116;SDS011;69042;59.120;37.904;2023-04-23T00:35:22;5.30;;;2.10;;
78116;SDS011;69042;59.120;37.904;2023-04-23T00:37:48;5.07;;;2.15;;
78116;SDS011;69042;59.120;37.904;2023-04-23T00:40:14;5.57;;;2.08;;
78116;SDS011;69042;59.120;37.904;2023-04-23T00:42:40;4.90;;;2.30;;
78116;SDS011;69042;59.120;37.904;2023-04-23T00:45:07;6.90;;;2.30;;
78116;SDS011;69042;59.120;37.904;2023-04-23T00:47:34;4.75;;;2.25;;
78116;SDS011;69042;59.120;37.904;2023-04-23T00:53:17;6.22;;;2.20;;
78116;SDS011;69042;59.120;37.904;2023-04-23T00:55:43;5.07;;;2.38;;
78116;SDS011;69042;59.120;37.904;2023-04-23T00:58:09;5.47;;;2.20;;
78116;SDS011;69042;59.120;37.904;2023-04-23T01:00:37;5.28;;;2.08;;
78116;SDS011;69042;59.120;37.904;2023-04-23T01:03:11;5.40;;;2.50;;
78116;SDS011;69042;59.120;37.904;2023-04-23T01:05:38;4.88;;;2.00;;
78116;SDS011;69042;59.120;37.904;2023-04-23T01:08:06;4.63;;;1.90;;
78116;SDS011;69042;59.120;37.904;2023-04-23T01:13:01;4.82;;;2.00;;
78116;SDS011;69042;59.120;37.904;2023-04-23T01:15:27;4.18;;;1.80;;
78116;SDS011;69042;59.120;37.904;2023-04-23T01:17:53;5.05;;;2.05;;
78116;SDS011;69042;59.120;37.904;2023-04-23T01:20:19;6.22;;;3.03;;
78116;SDS011;69042;59.120;37.904;2023-04-23T01:22:45;5.40;;;2.20;;
78116;SDS011;69042;59.120;37.904;2023-04-23T01:25:12;6.68;;;2.00;;
78116;SDS011;69042;59.120;37.904;2023-04-23T01:27:39;4.95;;;1.95;;
78116;SDS011;69042;59.120;37.904;2023-04-23T01:30:05;5.75;;;1.90;;
78116;SDS011;69042;59.120;37.904;2023-04-23T01:32:33;6.25;;;2.20;;
78116;SDS011;69042;59.120;37.904;2023-04-23T01:35:01;5.90;;;2.08;;
78116;SDS011;69042;59.120;37.904;2023-04-23T01:37:29;5.18;;;2.05;;
78116;SDS011;69042;59.120;37.904;2023-04-23T01:39:56;5.07;;;1.85;;
78116;SDS011;69042;59.120;37.904;2023-04-23T01:42:23;5.40;;;2.08;;
78116;SDS011;69042;59.120;37.904;2023-04-23T01:44:52;4.90;;;1.92;;
78116;SDS011;69042;59.120;37.904;2023-04-23T01:47:19;4.72;;;2.10;;
78116;SDS011;69042;59.120;37.904;2023-04-23T01:49:46;6.50;;;2.20;;
78116;SDS011;69042;59.120;37.904;2023-04-23T01:52:12;7.13;;;2.00;;
78116;SDS011;69042;59.120;37.904;2023-04-23T01:54:39;5.82;;;2.17;;
78116;SDS011;69042;59.120;37.904;2023-04-23T01:57:05;4.25;;;2.00;;
78116;SDS011;69042;59.120;37.904;2023-04-23T01:59:31;5.05;;;1.90;;
78116;SDS011;69042;59.120;37.904;2023-04-23T02:01:57;6.03;;;2.30;;
78116;SDS011;69042;59.120;37.904;2023-04-23T02:04:24;5.20;;;2.47;;
78116;SDS011;69042;59.120;37.904;2023-04-23T02:06:50;6.05;;;1.98;;
78116;SDS011;69042;59.120;37.904;2023-04-23T02:09:16;4.60;;;1.98;;
78116;SDS011;69042;59.120;37.904;2023-04-23T02:11:43;4.55;;;1.80;;
78116;SDS011;69042;59.120;37.904;2023-04-23T02:14:09;6.03;;;1.85;;
78116;SDS011;69042;59.120;37.904;2023-04-23T02:16:35;5.13;;;2.03;;
78116;SDS011;69042;59.120;37.904;2023-04-23T02:19:02;5.57;;;2.30;;
78116;SDS011;69042;59.120;37.904;2023-04-23T02:21:28;4.45;;;1.90;;
78116;SDS011;69042;59.120;37.904;2023-04-23T02:23:54;5.18;;;1.95;;
78116;SDS011;69042;59.120;37.904;2023-04-23T02:26:21;6.22;;;2.10;;
78116;SDS011;69042;59.120;37.904;2023-04-23T02:31:16;4.85;;;1.90;;
78116;SDS011;69042;59.120;37.904;2023-04-23T02:33:45;4.45;;;1.95;;
78116;SDS011;69042;59.120;37.904;2023-04-23T02:36:11;5.25;;;2.03;;
78116;SDS011;69042;59.120;37.904;2023-04-23T02:38:38;7.43;;;2.00;;
78116;SDS011;69042;59.120;37.904;2023-04-23T02:41:09;6.70;;;2.10;;
78116;SDS011;69042;59.120;37.904;2023-04-23T02:43:36;6.30;;;2.22;;
78116;SDS011;69042;59.120;37.904;2023-04-23T02:46:04;8.25;;;2.40;;
78116;SDS011;69042;59.120;37.904;2023-04-23T02:48:34;5.22;;;2.20;;
78116;SDS011;69042;59.120;37.904;2023-04-23T02:51:08;6.68;;;2.47;;
78116;SDS011;69042;59.120;37.904;2023-04-23T02:53:38;5.22;;;2.00;;
78116;SDS011;69042;59.120;37.904;2023-04-23T02:56:05;6.28;;;2.40;;
78116;SDS011;69042;59.120;37.904;2023-04-23T03:01:01;5.40;;;2.35;;
78116;SDS011;69042;59.120;37.904;2023-04-23T03:03:29;4.68;;;2.10;;
78116;SDS011;69042;59.120;37.904;2023-04-23T03:06:00;6.72;;;2.17;;
78116;SDS011;69042;59.120;37.904;2023-04-23T03:08:28;4.63;;;2.22;;
78116;SDS011;69042;59.120;37.904;2023-04-23T03:10:56;5.28;;;2.13;;
78116;SDS011;69042;59.120;37.904;2023-04-23T03:13:23;5.80;;;2.30;;
78116;SDS011;69042;59.120;37.904;2023-04-23T03:15:50;8.15;;;2.35;;
78116;SDS011;69042;59.120;37.904;2023-04-23T03:18:19;4.90;;;2.17;;
78116;SDS011;69042;59.120;37.904;2023-04-23T03:20:49;5.65;;;2.35;;
78116;SDS011;69042;59.120;37.904;2023-04-23T03:23:17;6.10;;;2.38;;
78116;SDS011;69042;59.120;37.904;2023-04-23T03:25:50;7.38;;;2.30;;
78116;SDS011;69042;59.120;37.904;2023-04-23T03:28:20;8.88;;;2.95;;
78116;SDS011;69042;59.120;37.904;2023-04-23T03:30:47;5.50;;;2.53;;
78116;SDS011;69042;59.120;37.904;2023-04-23T03:33:13;5.80;;;2.20;;
78116;SDS011;69042;59.120;37.904;2023-04-23T03:35:40;5.18;;;2.40;;
78116;SDS011;69042;59.120;37.904;2023-04-23T03:38:12;7.97;;;2.40;;
78116;SDS011;69042;59.120;37.904;2023-04-23T03:40:41;4.18;;;1.90;;
78116;SDS011;69042;59.120;37.904;2023-04-23T03:45:55;6.97;;;2.25;;
78116;SDS011;69042;59.120;37.904;2023-04-23T03:48:22;5.20;;;2.38;;
78116;SDS011;69042;59.120;37.904;2023-04-23T03:50:49;5.82;;;2.22;;
78116;SDS011;69042;59.120;37.904;2023-04-23T03:53:32;4.70;;;1.95;;
78116;SDS011;69042;59.120;37.904;2023-04-23T03:56:24;5.38;;;2.05;;
78116;SDS011;69042;59.120;37.904;2023-04-23T03:59:03;6.32;;;2.10;;
78116;SDS011;69042;59.120;37.904;2023-04-23T04:01:29;6.22;;;2.38;;
78116;SDS011;69042;59.120;37.904;2023-04-23T04:03:57;5.70;;;2.30;;
78116;SDS011;69042;59.120;37.904;2023-04-23T04:06:24;6.18;;;2.40;;
78116;SDS011;69042;59.120;37.904;2023-04-23T04:08:51;8.40;;;2.50;;
78116;SDS011;69042;59.120;37.904;2023-04-23T04:13:46;7.78;;;2.33;;
78116;SDS011;69042;59.120;37.904;2023-04-23T04:16:13;6.78;;;2.17;;
78116;SDS011;69042;59.120;37.904;2023-04-23T04:18:41;7.50;;;2.20;;
78116;SDS011;69042;59.120;37.904;2023-04-23T04:21:07;4.80;;;2.10;;
78116;SDS011;69042;59.120;37.904;2023-04-23T04:23:33;5.07;;;2.10;;
78116;SDS011;69042;59.120;37.904;2023-04-23T04:26:00;8.95;;;2.70;;
78116;SDS011;69042;59.120;37.904;2023-04-23T04:28:28;5.03;;;2.20;;
78116;SDS011;69042;59.120;37.904;2023-04-23T04:30:55;6.90;;;2.35;;
78116;SDS011;69042;59.120;37.904;2023-04-23T04:33:23;6.45;;;2.60;;
78116;SDS011;69042;59.120;37.904;2023-04-23T04:35:51;5.43;;;2.20;;
78116;SDS011;69042;59.120;37.904;2023-04-23T04:40:47;11.02;;;3.70;;
78116;SDS011;69042;59.120;37.904;2023-04-23T04:43:14;6.60;;;2.50;;
78116;SDS011;69042;59.120;37.904;2023-04-23T04:45:43;4.95;;;2.25;;
78116;SDS011;69042;59.120;37.904;2023-04-23T04:48:10;10.48;;;2.67;;
78116;SDS011;69042;59.120;37.904;2023-04-23T04:50:37;8.65;;;2.38;;
78116;SDS011;69042;59.120;37.904;2023-04-23T04:53:05;6.30;;;2.20;;
78116;SDS011;69042;59.120;37.904;2023-04-23T04:55:31;5.45;;;2.30;;
78116;SDS011;69042;59.120;37.904;2023-04-23T04:57:58;10.25;;;2.42;;
78116;SDS011;69042;59.120;37.904;2023-04-23T05:00:27;8.23;;;2.30;;
78116;SDS011;69042;59.120;37.904;2023-04-23T05:02:56;6.35;;;2.50;;
78116;SDS011;69042;59.120;37.904;2023-04-23T05:05:25;5.28;;;2.10;;
78116;SDS011;69042;59.120;37.904;2023-04-23T05:07:52;5.05;;;2.05;;
78116;SDS011;69042;59.120;37.904;2023-04-23T05:10:19;7.30;;;2.30;;
78116;SDS011;69042;59.120;37.904;2023-04-23T05:12:46;10.77;;;2.95;;
78116;SDS011;69042;59.120;37.904;2023-04-23T05:15:14;7.65;;;2.38;;
78116;SDS011;69042;59.120;37.904;2023-04-23T05:17:42;5.82;;;2.55;;
78116;SDS011;69042;59.120;37.904;2023-04-23T05:20:10;5.75;;;2.30;;
78116;SDS011;69042;59.120;37.904;2023-04-23T05:22:37;6.18;;;2.22;;
78116;SDS011;69042;59.120;37.904;2023-04-23T05:25:08;6.18;;;2.50;;
78116;SDS011;69042;59.120;37.904;2023-04-23T05:27:40;7.38;;;3.00;;
78116;SDS011;69042;59.120;37.904;2023-04-23T05:32:34;5.25;;;2.40;;
78116;SDS011;69042;59.120;37.904;2023-04-23T05:35:02;6.00;;;2.30;;
78116;SDS011;69042;59.120;37.904;2023-04-23T05:37:32;10.27;;;2.30;;
78116;SDS011;69042;59.120;37.904;2023-04-23T05:39:58;5.72;;;2.17;;
78116;SDS011;69042;59.120;37.904;2023-04-23T05:42:24;6.32;;;2.10;;
78116;SDS011;69042;59.120;37.904;2023-04-23T05:44:53;5.85;;;2.10;;
78116;SDS011;69042;59.120;37.904;2023-04-23T05:47:20;6.68;;;2.03;;
78116;SDS011;69042;59.120;37.904;2023-04-23T05:49:47;5.82;;;2.00;;
78116;SDS011;69042;59.120;37.904;2023-04-23T05:52:14;7.78;;;2.22;;
78116;SDS011;69042;59.120;37.904;2023-04-23T05:54:41;5.30;;;2.30;;
78116;SDS011;69042;59.120;37.904;2023-04-23T05:57:07;9.55;;;2.15;;
78116;SDS011;69042;59.120;37.904;2023-04-23T05:59:34;7.10;;;2.15;;
78116;SDS011;69042;59.120;37.904;2023-04-23T06:02:00;9.00;;;2.20;;
78116;SDS011;69042;59.120;37.904;2023-04-23T06:04:29;6.38;;;2.25;;
78116;SDS011;69042;59.120;37.904;2023-04-23T06:06:56;6.30;;;1.95;;
78116;SDS011;69042;59.120;37.904;2023-04-23T06:09:23;7.22;;;2.13;;
78116;SDS011;69042;59.120;37.904;2023-04-23T06:11:52;7.90;;;1.90;;
78116;SDS011;69042;59.120;37.904;2023-04-23T06:14:19;7.25;;;2.30;;
78116;SDS011;69042;59.120;37.904;2023-04-23T06:16:46;5.15;;;1.98;;
78116;SDS011;69042;59.120;37.904;2023-04-23T06:19:13;8.13;;;1.90;;
78116;SDS011;69042;59.120;37.904;2023-04-23T06:21:41;7.57;;;1.92;;
78116;SDS011;69042;59.120;37.904;2023-04-23T06:24:08;10.45;;;2.28;;
78116;SDS011;69042;59.120;37.904;2023-04-23T06:26:34;8.43;;;2.50;;
78116;SDS011;69042;59.120;37.904;2023-04-23T06:29:09;7.45;;;2.00;;
78116;SDS011;69042;59.120;37.904;2023-04-23T06:32:00;4.95;;;1.90;;
78116;SDS011;69042;59.120;37.904;2023-04-23T06:34:28;6.47;;;1.80;;
78116;SDS011;69042;59.120;37.904;2023-04-23T06:36:55;8.18;;;2.47;;
78116;SDS011;69042;59.120;37.904;2023-04-23T06:39:21;4.78;;;1.90;;
78116;SDS011;69042;59.120;37.904;2023-04-23T06:41:48;6.75;;;2.47;;
78116;SDS011;69042;59.120;37.904;2023-04-23T06:44:33;6.97;;;2.30;;
78116;SDS011;69042;59.120;37.904;2023-04-23T06:47:00;5.15;;;1.92;;
78116;SDS011;69042;59.120;37.904;2023-04-23T06:49:26;7.30;;;1.90;;
78116;SDS011;69042;59.120;37.904;2023-04-23T06:51:53;9.23;;;2.45;;
78116;SDS011;69042;59.120;37.904;2023-04-23T06:54:20;6.70;;;2.15;;
78116;SDS011;69042;59.120;37.904;2023-04-23T06:56:46;5.50;;;2.10;;
78116;SDS011;69042;59.120;37.904;2023-04-23T06:59:12;6.07;;;2.00;;
78116;SDS011;69042;59.120;37.904;2023-04-23T07:01:46;6.68;;;2.20;;
78116;SDS011;69042;59.120;37.904;2023-04-23T07:04:15;5.45;;;1.88;;
78116;SDS011;69042;59.120;37.904;2023-04-23T07:06:42;5.05;;;2.00;;
78116;SDS011;69042;59.120;37.904;2023-04-23T07:09:08;6.13;;;1.70;;
78116;SDS011;69042;59.120;37.904;2023-04-23T07:11:36;9.52;;;2.00;;
78116;SDS011;69042;59.120;37.904;2023-04-23T07:14:03;7.18;;;2.10;;
78116;SDS011;69042;59.120;37.904;2023-04-23T07:16:29;8.05;;;2.20;;
78116;SDS011;69042;59.120;37.904;2023-04-23T07:18:59;6.00;;;2.10;;
78116;SDS011;69042;59.120;37.904;2023-04-23T07:23:54;4.97;;;2.20;;
78116;SDS011;69042;59.120;37.904;2023-04-23T07:26:31;7.43;;;2.10;;
78116;SDS011;69042;59.120;37.904;2023-04-23T07:28:58;9.40;;;3.45;;
78116;SDS011;69042;59.120;37.904;2023-04-23T07:31:27;8.20;;;2.75;;
78116;SDS011;69042;59.120;37.904;2023-04-23T07:33:54;7.75;;;2.75;;
78116;SDS011;69042;59.120;37.904;2023-04-23T07:36:21;5.28;;;2.40;;
78116;SDS011;69042;59.120;37.904;2023-04-23T07:38:49;9.10;;;2.40;;
78116;SDS011;69042;59.120;37.904;2023-04-23T07:41:17;8.57;;;2.20;;
78116;SDS011;69042;59.120;37.904;2023-04-23T07:43:45;6.70;;;2.08;;
78116;SDS011;69042;59.120;37.904;2023-04-23T07:46:13;5.22;;;2.00;;
78116;SDS011;69042;59.120;37.904;2023-04-23T07:48:41;6.65;;;2.10;;
78116;SDS011;69042;59.120;37.904;2023-04-23T07:51:07;11.68;;;2.45;;
78116;SDS011;69042;59.120;37.904;2023-04-23T07:53:38;6.80;;;2.22;;
78116;SDS011;69042;59.120;37.904;2023-04-23T07:56:05;9.93;;;3.03;;
78116;SDS011;69042;59.120;37.904;2023-04-23T07:58:31;7.57;;;2.38;;
78116;SDS011;69042;59.120;37.904;2023-04-23T08:00:58;12.30;;;4.20;;
78116;SDS011;69042;59.120;37.904;2023-04-23T08:03:24;7.40;;;2.15;;
78116;SDS011;69042;59.120;37.904;2023-04-23T08:05:50;5.15;;;2.15;;
78116;SDS011;69042;59.120;37.904;2023-04-23T08:08:17;6.38;;;2.67;;
78116;SDS011;69042;59.120;37.904;2023-04-23T08:10:45;14.38;;;3.65;;
78116;SDS011;69042;59.120;37.904;2023-04-23T08:13:12;11.30;;;3.03;;
78116;SDS011;69042;59.120;37.904;2023-04-23T08:15:39;6.03;;;2.25;;
78116;SDS011;69042;59.120;37.904;2023-04-23T08:18:06;20.00;;;3.60;;
78116;SDS011;69042;59.120;37.904;2023-04-23T08:20:32;11.43;;;2.30;;
78116;SDS011;69042;59.120;37.904;2023-04-23T08:23:01;7.95;;;2.50;;
78116;SDS011;69042;59.120;37.904;2023-04-23T08:25:29;7.45;;;2.80;;
78116;SDS011;69042;59.120;37.904;2023-04-23T08:27:57;5.72;;;2.10;;
78116;SDS011;69042;59.120;37.904;2023-04-23T08:30:24;5.38;;;2.00;;
78116;SDS011;69042;59.120;37.904;2023-04-23T08:32:51;6.38;;;2.35;;
78116;SDS011;69042;59.120;37.904;2023-04-23T08:35:20;6.30;;;2.17;;
78116;SDS011;69042;59.120;37.904;2023-04-23T08:37:46;6.70;;;2.30;;
78116;SDS011;69042;59.120;37.904;2023-04-23T08:40:14;14.63;;;2.60;;
78116;SDS011;69042;59.120;37.904;2023-04-23T08:42:44;7.38;;;1.92;;
78116;SDS011;69042;59.120;37.904;2023-04-23T08:45:17;8.18;;;2.78;;
78116;SDS011;69042;59.120;37.904;2023-04-23T08:47:44;10.38;;;2.70;;
78116;SDS011;69042;59.120;37.904;2023-04-23T08:50:10;7.85;;;2.47;;
78116;SDS011;69042;59.120;37.904;2023-04-23T08:52:46;6.80;;;2.40;;
78116;SDS011;69042;59.120;37.904;2023-04-23T08:55:17;9.23;;;2.53;;
78116;SDS011;69042;59.120;37.904;2023-04-23T08:57:44;5.82;;;2.42;;
78116;SDS011;69042;59.120;37.904;2023-04-23T09:00:12;10.27;;;2.90;;
78116;SDS011;69042;59.120;37.904;2023-04-23T09:02:42;10.30;;;3.13;;
78116;SDS011;69042;59.120;37.904;2023-04-23T09:05:12;14.07;;;2.60;;
78116;SDS011;69042;59.120;37.904;2023-04-23T09:07:40;7.97;;;2.40;;
78116;SDS011;69042;59.120;37.904;2023-04-23T09:10:08;7.53;;;2.40;;
78116;SDS011;69042;59.120;37.904;2023-04-23T09:12:36;7.47;;;2.50;;
78116;SDS011;69042;59.120;37.904;2023-04-23T09:15:06;8.02;;;2.50;;
78116;SDS011;69042;59.120;37.904;2023-04-23T09:17:39;7.00;;;2.83;;
78116;SDS011;69042;59.120;37.904;2023-04-23T09:20:11;8.93;;;3.10;;
78116;SDS011;69042;59.120;37.904;2023-04-23T09:25:09;11.20;;;2.67;;
78116;SDS011;69042;59.120;37.904;2023-04-23T09:27:36;6.38;;;2.10;;
78116;SDS011;69042;59.120;37.904;2023-04-23T09:30:04;7.10;;;3.28;;
78116;SDS011;69042;59.120;37.904;2023-04-23T09:32:33;6.85;;;2.60;;
78116;SDS011;69042;59.120;37.904;2023-04-23T09:35:03;10.65;;;3.22;;
78116;SDS011;69042;59.120;37.904;2023-04-23T09:37:31;6.72;;;2.30;;
78116;SDS011;69042;59.120;37.904;2023-04-23T09:40:01;6.90;;;2.50;;
78116;SDS011;69042;59.120;37.904;2023-04-23T09:42:29;8.13;;;3.30;;
78116;SDS011;69042;59.120;37.904;2023-04-23T09:44:59;6.90;;;2.80;;
78116;SDS011;69042;59.120;37.904;2023-04-23T09:47:30;7.15;;;2.42;;
78116;SDS011;69042;59.120;37.904;2023-04-23T09:49:59;7.15;;;2.80;;
78116;SDS011;69042;59.120;37.904;2023-04-23T09:52:26;9.00;;;2.70;;
78116;SDS011;69042;59.120;37.904;2023-04-23T09:55:01;7.25;;;2.42;;
78116;SDS011;69042;59.120;37.904;2023-04-23T09:57:34;13.45;;;3.70;;
78116;SDS011;69042;59.120;37.904;2023-04-23T10:00:12;10.88;;;3.58;;
78116;SDS011;69042;59.120;37.904;2023-04-23T10:02:47;12.63;;;3.67;;
78116;SDS011;69042;59.120;37.904;2023-04-23T10:05:15;10.93;;;4.13;;
78116;SDS011;69042;59.120;37.904;2023-04-23T10:07:42;8.82;;;3.45;;
78116;SDS011;69042;59.120;37.904;2023-04-23T10:10:19;10.30;;;3.67;;
78116;SDS011;69042;59.120;37.904;2023-04-23T10:12:47;9.50;;;2.97;;
78116;SDS011;69042;59.120;37.904;2023-04-23T10:15:16;9.98;;;3.65;;
78116;SDS011;69042;59.120;37.904;2023-04-23T10:17:44;10.45;;;3.70;;
78116;SDS011;69042;59.120;37.904;2023-04-23T10:20:14;10.80;;;4.85;;
78116;SDS011;69042;59.120;37.904;2023-04-23T10:22:42;8.52;;;3.90;;
78116;SDS011;69042;59.120;37.904;2023-04-23T10:25:10;7.68;;;3.10;;
78116;SDS011;69042;59.120;37.904;2023-04-23T10:27:38;8.35;;;3.15;;
78116;SDS011;69042;59.120;37.904;2023-04-23T10:30:09;10.40;;;3.50;;
78116;SDS011;69042;59.120;37.904;2023-04-23T10:32:38;24.05;;;4.05;;
78116;SDS011;69042;59.120;37.904;2023-04-23T10:35:04;6.70;;;2.63;;
78116;SDS011;69042;59.120;37.904;2023-04-23T10:37:36;9.77;;;3.17;;
78116;SDS011;69042;59.120;37.904;2023-04-23T10:40:06;10.00;;;2.85;;
78116;SDS011;69042;59.120;37.904;2023-04-23T10:42:39;7.57;;;3.17;;
78116;SDS011;69042;59.120;37.904;2023-04-23T10:45:07;8.45;;;2.92;;
78116;SDS011;69042;59.120;37.904;2023-04-23T10:47:40;14.77;;;4.03;;
78116;SDS011;69042;59.120;37.904;2023-04-23T10:50:19;8.75;;;3.60;;
78116;SDS011;69042;59.120;37.904;2023-04-23T10:52:48;8.23;;;3.80;;
78116;SDS011;69042;59.120;37.904;2023-04-23T10:55:23;11.10;;;3.17;;
78116;SDS011;69042;59.120;37.904;2023-04-23T11:00:27;7.53;;;3.50;;
78116;SDS011;69042;59.120;37.904;2023-04-23T11:06:04;8.27;;;3.20;;
78116;SDS011;69042;59.120;37.904;2023-04-23T11:08:36;9.38;;;3.47;;
78116;SDS011;69042;59.120;37.904;2023-04-23T11:11:16;8.10;;;3.00;;
78116;SDS011;69042;59.120;37.904;2023-04-23T11:13:52;10.20;;;2.70;;
78116;SDS011;69042;59.120;37.904;2023-04-23T11:16:22;11.52;;;3.30;;
78116;SDS011;69042;59.120;37.904;2023-04-23T11:18:59;9.05;;;2.90;;
78116;SDS011;69042;59.120;37.904;2023-04-23T11:27:11;6.10;;;2.67;;
78116;SDS011;69042;59.120;37.904;2023-04-23T11:29:42;6.15;;;2.38;;
78116;SDS011;69042;59.120;37.904;2023-04-23T11:32:11;10.65;;;3.00;;
78116;SDS011;69042;59.120;37.904;2023-04-23T11:34:39;11.93;;;3.35;;
78116;SDS011;69042;59.120;37.904;2023-04-23T11:37:10;14.10;;;2.53;;
78116;SDS011;69042;59.120;37.904;2023-04-23T11:39:39;9.48;;;3.05;;
78116;SDS011;69042;59.120;37.904;2023-04-23T11:44:38;8.25;;;3.10;;
78116;SDS011;69042;59.120;37.904;2023-04-23T11:47:07;8.13;;;2.63;;
78116;SDS011;69042;59.120;37.904;2023-04-23T11:49:37;6.47;;;2.60;;
78116;SDS011;69042;59.120;37.904;2023-04-23T11:52:05;9.98;;;2.67;;
78116;SDS011;69042;59.120;37.904;2023-04-23T11:54:32;7.15;;;2.40;;
78116;SDS011;69042;59.120;37.904;2023-04-23T11:57:01;14.07;;;3.13;;
78116;SDS011;69042;59.120;37.904;2023-04-23T11:59:32;7.88;;;2.35;;
78116;SDS011;69042;59.120;37.904;2023-04-23T12:01:59;7.05;;;2.35;;
78116;SDS011;69042;59.120;37.904;2023-04-23T12:04:27;12.15;;;2.50;;
78116;SDS011;69042;59.120;37.904;2023-04-23T12:06:57;7.05;;;2.40;;
78116;SDS011;69042;59.120;37.904;2023-04-23T12:09:25;6.97;;;2.20;;
78116;SDS011;69042;59.120;37.904;2023-04-23T12:11:55;6.97;;;2.38;;
78116;SDS011;69042;59.120;37.904;2023-04-23T12:14:27;6.03;;;2.05;;
78116;SDS011;69042;59.120;37.904;2023-04-23T12:16:55;6.40;;;2.10;;
78116;SDS011;69042;59.120;37.904;2023-04-23T12:24:27;7.75;;;2.13;;
78116;SDS011;69042;59.120;37.904;2023-04-23T12:26:57;8.73;;;2.30;;
78116;SDS011;69042;59.120;37.904;2023-04-23T12:29:28;5.13;;;2.00;;
78116;SDS011;69042;59.120;37.904;2023-04-23T12:31:57;7.47;;;2.00;;
78116;SDS011;69042;59.120;37.904;2023-04-23T12:34:26;9.15;;;1.90;;
78116;SDS011;69042;59.120;37.904;2023-04-23T12:36:54;7.75;;;2.40;;
78116;SDS011;69042;59.120;37.904;2023-04-23T12:39:23;6.22;;;2.45;;
78116;SDS011;69042;59.120;37.904;2023-04-23T12:42:02;7.75;;;2.22;;
78116;SDS011;69042;59.120;37.904;2023-04-23T12:44:34;5.72;;;2.05;;
78116;SDS011;69042;59.120;37.904;2023-04-23T12:47:03;6.88;;;2.00;;
78116;SDS011;69042;59.120;37.904;2023-04-23T12:49:35;5.78;;;2.10;;
78116;SDS011;69042;59.120;37.904;2023-04-23T12:52:02;5.90;;;2.05;;
78116;SDS011;69042;59.120;37.904;2023-04-23T12:54:33;7.20;;;2.30;;
78116;SDS011;69042;59.120;37.904;2023-04-23T12:57:02;6.70;;;2.30;;
78116;SDS011;69042;59.120;37.904;2023-04-23T12:59:30;6.50;;;2.05;;
78116;SDS011;69042;59.120;37.904;2023-04-23T13:02:01;5.65;;;2.10;;
78116;SDS011;69042;59.120;37.904;2023-04-23T13:04:29;5.95;;;2.10;;
78116;SDS011;69042;59.120;37.904;2023-04-23T13:06:56;9.82;;;2.78;;
78116;SDS011;69042;59.120;37.904;2023-04-23T13:09:23;8.60;;;2.20;;
78116;SDS011;69042;59.120;37.904;2023-04-23T13:11:53;6.05;;;2.08;;
78116;SDS011;69042;59.120;37.904;2023-04-23T13:14:20;6.47;;;2.03;;
78116;SDS011;69042;59.120;37.904;2023-04-23T13:16:46;11.15;;;2.67;;
78116;SDS011;69042;59.120;37.904;2023-04-23T13:19:12;12.13;;;2.22;;
78116;SDS011;69042;59.120;37.904;2023-04-23T13:21:39;6.25;;;2.17;;
78116;SDS011;69042;59.120;37.904;2023-04-23T13:24:07;4.65;;;1.65;;
78116;SDS011;69042;59.120;37.904;2023-04-23T13:26:36;5.82;;;2.20;;
78116;SDS011;69042;59.120;37.904;2023-04-23T13:29:05;8.73;;;2.10;;
78116;SDS011;69042;59.120;37.904;2023-04-23T13:31:32;6.95;;;2.05;;
78116;SDS011;69042;59.120;37.904;2023-04-23T13:34:00;7.50;;;2.20;;
78116;SDS011;69042;59.120;37.904;2023-04-23T13:36:28;8.43;;;2.40;;
78116;SDS011;69042;59.120;37.904;2023-04-23T13:38:56;7.90;;;1.83;;
78116;SDS011;69042;59.120;37.904;2023-04-23T13:41:22;7.25;;;2.10;;
78116;SDS011;69042;59.120;37.904;2023-04-23T13:43:50;9.32;;;2.40;;
78116;SDS011;69042;59.120;37.904;2023-04-23T13:46:17;6.55;;;1.92;;
78116;SDS011;69042;59.120;37.904;2023-04-23T13:48:44;7.93;;;2.08;;
78116;SDS011;69042;59.120;37.904;2023-04-23T13:51:11;6.32;;;2.03;;
78116;SDS011;69042;59.120;37.904;2023-04-23T13:53:37;8.32;;;2.05;;
78116;SDS011;69042;59.120;37.904;2023-04-23T13:56:05;11.25;;;2.05;;
78116;SDS011;69042;59.120;37.904;2023-04-23T13:58:32;13.02;;;2.33;;
78116;SDS011;69042;59.120;37.904;2023-04-23T14:00:59;7.97;;;2.25;;
78116;SDS011;69042;59.120;37.904;2023-04-23T14:03:26;8.57;;;2.05;;
78116;SDS011;69042;59.120;37.904;2023-04-23T14:05:52;8.25;;;2.40;;
78116;SDS011;69042;59.120;37.904;2023-04-23T14:08:20;12.38;;;2.17;;
78116;SDS011;69042;59.120;37.904;2023-04-23T14:10:50;8.35;;;2.20;;
78116;SDS011;69042;59.120;37.904;2023-04-23T14:13:17;14.20;;;2.90;;
78116;SDS011;69042;59.120;37.904;2023-04-23T14:15:43;8.90;;;2.15;;
78116;SDS011;69042;59.120;37.904;2023-04-23T14:18:13;9.48;;;2.30;;
78116;SDS011;69042;59.120;37.904;2023-04-23T14:20:42;7.43;;;2.20;;
78116;SDS011;69042;59.120;37.904;2023-04-23T14:25:45;7.95;;;3.15;;
78116;SDS011;69042;59.120;37.904;2023-04-23T14:28:27;8.25;;;2.25;;
78116;SDS011;69042;59.120;37.904;2023-04-23T14:30:55;6.57;;;2.20;;
78116;SDS011;69042;59.120;37.904;2023-04-23T14:33:26;7.20;;;2.50;;
78116;SDS011;69042;59.120;37.904;2023-04-23T14:35:53;6.97;;;1.98;;
78116;SDS011;69042;59.120;37.904;2023-04-23T14:38:22;7.00;;;2.13;;
78116;SDS011;69042;59.120;37.904;2023-04-23T14:40:49;5.13;;;1.83;;
78116;SDS011;69042;59.120;37.904;2023-04-23T14:43:15;7.85;;;2.13;;
78116;SDS011;69042;59.120;37.904;2023-04-23T14:45:44;7.13;;;2.00;;
78116;SDS011;69042;59.120;37.904;2023-04-23T14:48:10;8.32;;;2.00;;
78116;SDS011;69042;59.120;37.904;2023-04-23T14:50:36;4.55;;;1.90;;
78116;SDS011;69042;59.120;37.904;2023-04-23T14:53:03;5.60;;;1.80;;
78116;SDS011;69042;59.120;37.904;2023-04-23T14:55:32;5.95;;;1.85;;
78116;SDS011;69042;59.120;37.904;2023-04-23T14:58:00;5.43;;;1.95;;
78116;SDS011;69042;59.120;37.904;2023-04-23T15:00:30;5.45;;;1.90;;
78116;SDS011;69042;59.120;37.904;2023-04-23T15:02:56;7.25;;;1.88;;
78116;SDS011;69042;59.120;37.904;2023-04-23T15:05:23;7.53;;;1.90;;
78116;SDS011;69042;59.120;37.904;2023-04-23T15:07:50;9.00;;;1.90;;
78116;SDS011;69042;59.120;37.904;2023-04-23T15:10:19;6.50;;;1.63;;
78116;SDS011;69042;59.120;37.904;2023-04-23T15:16:08;5.95;;;2.10;;
78116;SDS011;69042;59.120;37.904;2023-04-23T15:18:54;7.68;;;2.00;;
78116;SDS011;69042;59.120;37.904;2023-04-23T15:21:22;7.85;;;2.03;;
78116;SDS011;69042;59.120;37.904;2023-04-23T15:26:18;7.10;;;1.73;;
78116;SDS011;69042;59.120;37.904;2023-04-23T15:28:47;6.70;;;1.70;;
78116;SDS011;69042;59.120;37.904;2023-04-23T15:31:13;7.47;;;1.85;;
78116;SDS011;69042;59.120;37.904;2023-04-23T15:33:40;6.55;;;1.92;;